Time;durP1;ratioP1;P1;durP2;ratioP2;P2;SDS_P1;SDS_P2;PMS_P1;PMS_P2;Temp;Humidity;BMP_temperature;BMP_pressure;BME280_temperature;BME280_humidity;BME280_pressure;Samples;Min_cycle;Max_cycle;Signal;HPM_P1;HPM_P2
2022/12/24 00:02:38;;;;;;;79.07;73.03;;;;;;;;;;10200462;28;20049;-71
2022/12/24 00:07:35;;;;;;;81.00;74.85;;;;;;;;;;10199368;28;20042;-71
2022/12/24 00:12:31;;;;;;;81.63;75.47;;;;;;;;;;10200394;28;20049;-72
2022/12/24 00:17:27;;;;;;;85.90;79.05;;;;;;;;;;10199392;28;20141;-71
2022/12/24 00:22:23;;;;;;;82.78;76.57;;;;;;;;;;10200595;28;20534;-72
2022/12/24 00:27:20;;;;;;;84.95;78.07;;;;;;;;;;10198886;28;20053;-71
2022/12/24 00:32:16;;;;;;;86.03;79.35;;;;;;;;;;10199812;28;20058;-72
2022/12/24 00:37:12;;;;;;;79.80;73.55;;;;;;;;;;10198305;28;20544;-71
2022/12/24 00:42:08;;;;;;;83.65;77.18;;;;;;;;;;10199661;28;20042;-71
2022/12/24 00:47:05;;;;;;;78.93;72.72;;;;;;;;;;10198061;28;20085;-71
2022/12/24 00:52:07;;;;;;;83.80;77.60;;;;;;;;;;10198342;28;20065;-72
2022/12/24 00:57:03;;;;;;;80.35;74.20;;;;;;;;;;10199113;28;20492;-71
2022/12/24 01:02:00;;;;;;;81.38;75.43;;;;;;;;;;10197998;28;20573;-72
2022/12/24 01:06:56;;;;;;;80.10;74.07;;;;;;;;;;10197973;28;20046;-71
2022/12/24 01:11:52;;;;;;;81.50;75.00;;;;;;;;;;10195889;28;20053;-71
2022/12/24 01:16:48;;;;;;;81.57;75.45;;;;;;;;;;10197909;28;20080;-72
2022/12/24 01:21:45;;;;;;;81.95;75.80;;;;;;;;;;10196624;28;20587;-72
2022/12/24 01:26:42;;;;;;;81.95;75.53;;;;;;;;;;10197775;28;20499;-72
2022/12/24 01:31:38;;;;;;;79.18;72.88;;;;;;;;;;10196897;28;20050;-72
2022/12/24 01:36:35;;;;;;;78.22;72.28;;;;;;;;;;10196470;28;20042;-72
2022/12/24 01:46:49;;;;;;;77.90;71.72;;;;;;;;;;10190218;28;20050;-71
2022/12/24 01:51:53;;;;;;;78.35;72.25;;;;;;;;;;10157280;28;20689;-72
2022/12/24 01:56:52;;;;;;;78.45;72.35;;;;;;;;;;10185779;28;20124;-71
2022/12/24 02:01:49;;;;;;;76.85;70.95;;;;;;;;;;10196581;28;20138;-71
2022/12/24 02:06:45;;;;;;;75.32;69.45;;;;;;;;;;10193913;28;20568;-71
2022/12/24 02:11:43;;;;;;;80.72;74.40;;;;;;;;;;10194212;28;20046;-71
2022/12/24 02:16:58;;;;;;;76.40;70.88;;;;;;;;;;10195401;28;20077;-72
2022/12/24 02:21:54;;;;;;;77.18;70.40;;;;;;;;;;10193906;28;20133;-71
2022/12/24 02:26:51;;;;;;;76.40;70.10;;;;;;;;;;10194923;28;20101;-72
2022/12/24 02:31:51;;;;;;;76.00;70.13;;;;;;;;;;10193972;28;20427;-71
2022/12/24 02:36:51;;;;;;;79.22;73.50;;;;;;;;;;10193388;28;20065;-71
2022/12/24 02:42:07;;;;;;;79.03;72.88;;;;;;;;;;10194872;28;20069;-73
2022/12/24 02:47:05;;;;;;;78.30;72.32;;;;;;;;;;10193449;28;20052;-72
2022/12/24 02:52:01;;;;;;;75.60;69.55;;;;;;;;;;10194716;28;20198;-72
2022/12/24 02:57:18;;;;;;;73.43;67.93;;;;;;;;;;10189300;28;20068;-71
2022/12/24 03:02:33;;;;;;;79.35;73.22;;;;;;;;;;10154411;28;20121;-71
2022/12/24 03:07:37;;;;;;;73.38;67.80;;;;;;;;;;10176274;28;20050;-72
2022/12/24 03:12:36;;;;;;;76.93;71.18;;;;;;;;;;10153922;28;20074;-71
2022/12/24 03:17:35;;;;;;;78.47;73.03;;;;;;;;;;10188698;28;20056;-71
2022/12/24 03:22:33;;;;;;;77.18;71.38;;;;;;;;;;10193504;28;20042;-71
2022/12/24 03:27:31;;;;;;;76.18;70.38;;;;;;;;;;10191933;28;20475;-71
2022/12/24 03:32:28;;;;;;;77.60;72.15;;;;;;;;;;10192431;28;20062;-72
2022/12/24 03:37:25;;;;;;;77.05;71.20;;;;;;;;;;10192855;28;20133;-72
2022/12/24 03:42:21;;;;;;;78.40;73.13;;;;;;;;;;10192036;28;20060;-72
2022/12/24 03:47:18;;;;;;;75.65;70.10;;;;;;;;;;10191873;28;20069;-72
2022/12/24 03:52:14;;;;;;;75.70;70.20;;;;;;;;;;10193185;28;20046;-71
2022/12/24 03:57:10;;;;;;;73.28;68.13;;;;;;;;;;10189331;28;20137;-73
2022/12/24 04:02:06;;;;;;;78.28;72.30;;;;;;;;;;10153232;28;20053;-71
2022/12/24 04:07:04;;;;;;;77.78;72.20;;;;;;;;;;10167204;28;20046;-71
2022/12/24 04:12:00;;;;;;;75.63;70.35;;;;;;;;;;10152800;28;20043;-71
2022/12/24 04:16:56;;;;;;;76.40;70.95;;;;;;;;;;10184666;28;20081;-71
2022/12/24 04:21:52;;;;;;;73.90;68.57;;;;;;;;;;10182630;28;20153;-71
2022/12/24 04:26:49;;;;;;;72.45;67.45;;;;;;;;;;10182600;28;20073;-71
2022/12/24 04:31:45;;;;;;;73.30;68.18;;;;;;;;;;10182667;28;20137;-71
2022/12/24 04:36:41;;;;;;;73.07;67.85;;;;;;;;;;10180748;28;20046;-73
2022/12/24 04:41:38;;;;;;;74.65;69.63;;;;;;;;;;10169564;28;20058;-72
2022/12/24 04:46:34;;;;;;;71.18;66.13;;;;;;;;;;10182868;28;20096;-71
2022/12/24 04:51:31;;;;;;;73.72;68.53;;;;;;;;;;10173524;28;20261;-72
2022/12/24 04:56:29;;;;;;;72.07;67.05;;;;;;;;;;10186647;28;20064;-74
2022/12/24 05:01:27;;;;;;;73.95;68.90;;;;;;;;;;10196703;28;20419;-72
2022/12/24 05:06:25;;;;;;;72.50;67.40;;;;;;;;;;10197453;28;20034;-71
2022/12/24 05:11:21;;;;;;;72.63;67.38;;;;;;;;;;10198235;28;20488;-72
2022/12/24 05:16:19;;;;;;;72.07;66.97;;;;;;;;;;10195919;28;20050;-72
2022/12/24 05:21:17;;;;;;;73.97;68.97;;;;;;;;;;10197791;28;20046;-72
2022/12/24 05:26:21;;;;;;;73.57;68.60;;;;;;;;;;10197271;28;20050;-72
2022/12/24 05:31:17;;;;;;;72.85;67.95;;;;;;;;;;10196694;28;20583;-72
2022/12/24 05:36:14;;;;;;;74.07;68.95;;;;;;;;;;10197267;28;20068;-72
2022/12/24 05:41:10;;;;;;;75.93;70.40;;;;;;;;;;10208402;28;20222;-72
2022/12/24 05:46:08;;;;;;;76.68;71.45;;;;;;;;;;10181610;28;20060;-72
2022/12/24 05:51:06;;;;;;;77.00;71.45;;;;;;;;;;10195998;28;20050;-72
2022/12/24 05:56:03;;;;;;;78.78;73.18;;;;;;;;;;10196509;28;20133;-72
2022/12/24 06:01:00;;;;;;;75.68;70.35;;;;;;;;;;10195560;28;20424;-72
2022/12/24 06:05:57;;;;;;;75.68;70.38;;;;;;;;;;10193078;28;20447;-71
2022/12/24 06:10:58;;;;;;;74.00;68.80;;;;;;;;;;10156438;28;20504;-72
2022/12/24 06:15:57;;;;;;;74.15;69.05;;;;;;;;;;10178266;28;20534;-72
2022/12/24 06:20:54;;;;;;;75.60;70.40;;;;;;;;;;10195673;28;20046;-72
2022/12/24 06:25:51;;;;;;;78.05;72.78;;;;;;;;;;10194021;28;20046;-72
2022/12/24 06:30:48;;;;;;;72.25;67.47;;;;;;;;;;10195306;28;20061;-72
2022/12/24 06:35:45;;;;;;;74.70;69.72;;;;;;;;;;10194155;28;20056;-72
2022/12/24 06:40:42;;;;;;;73.65;68.68;;;;;;;;;;10193746;28;20050;-72
2022/12/24 06:45:39;;;;;;;68.78;63.85;;;;;;;;;;10194764;28;20081;-72
2022/12/24 06:50:35;;;;;;;71.38;66.80;;;;;;;;;;10193658;28;20115;-72
2022/12/24 06:55:32;;;;;;;72.15;67.35;;;;;;;;;;10194486;28;20697;-72
2022/12/24 07:00:28;;;;;;;72.78;67.93;;;;;;;;;;10193348;28;20077;-72
2022/12/24 07:05:24;;;;;;;73.65;68.75;;;;;;;;;;10194004;28;20096;-72
2022/12/24 07:10:20;;;;;;;75.90;70.88;;;;;;;;;;10192195;28;20092;-72
2022/12/24 07:15:17;;;;;;;74.30;69.60;;;;;;;;;;10194037;28;20080;-72
2022/12/24 07:20:13;;;;;;;74.28;69.55;;;;;;;;;;10192353;28;20418;-72
2022/12/24 07:25:10;;;;;;;74.55;69.70;;;;;;;;;;10207921;28;20095;-71
2022/12/24 07:30:08;;;;;;;74.15;69.38;;;;;;;;;;10194139;28;20733;-72
2022/12/24 07:35:04;;;;;;;74.63;69.82;;;;;;;;;;10192836;28;20462;-71
2022/12/24 07:40:00;;;;;;;71.93;67.18;;;;;;;;;;10193545;28;20046;-72
2022/12/24 07:44:56;;;;;;;71.55;67.07;;;;;;;;;;10187294;28;20050;-72
2022/12/24 07:49:53;;;;;;;72.93;68.18;;;;;;;;;;10192521;28;20050;-72
2022/12/24 07:54:49;;;;;;;71.85;67.35;;;;;;;;;;10167487;28;20042;-72
2022/12/24 07:59:45;;;;;;;74.47;69.57;;;;;;;;;;10176125;28;20056;-72
2022/12/24 08:04:42;;;;;;;70.88;66.38;;;;;;;;;;10166480;28;20045;-71
2022/12/24 08:09:38;;;;;;;71.97;67.47;;;;;;;;;;10191369;28;20056;-72
2022/12/24 08:14:35;;;;;;;73.35;68.72;;;;;;;;;;10191729;28;20078;-72
2022/12/24 08:19:31;;;;;;;68.47;64.13;;;;;;;;;;10192690;28;20104;-72
2022/12/24 08:24:27;;;;;;;70.93;66.45;;;;;;;;;;10199022;28;20477;-72
2022/12/24 08:29:23;;;;;;;73.43;68.82;;;;;;;;;;10199593;28;20153;-72
2022/12/24 08:34:20;;;;;;;71.38;66.97;;;;;;;;;;10198389;28;20058;-72
2022/12/24 08:39:16;;;;;;;70.20;65.90;;;;;;;;;;10199158;28;20471;-73
2022/12/24 08:44:12;;;;;;;71.63;67.32;;;;;;;;;;10198278;28;20045;-72
2022/12/24 08:49:08;;;;;;;69.93;65.50;;;;;;;;;;10198449;28;20404;-72
2022/12/24 08:54:04;;;;;;;70.82;66.72;;;;;;;;;;10199081;28;20052;-71
2022/12/24 08:59:01;;;;;;;70.60;66.40;;;;;;;;;;10197254;28;20042;-71
2022/12/24 09:03:57;;;;;;;71.07;66.85;;;;;;;;;;10198663;28;20046;-71
2022/12/24 09:08:53;;;;;;;71.03;66.80;;;;;;;;;;10196993;28;20531;-72
2022/12/24 09:13:49;;;;;;;68.45;64.45;;;;;;;;;;10198281;28;20511;-71
2022/12/24 09:18:46;;;;;;;71.57;67.38;;;;;;;;;;10166044;28;20043;-71
2022/12/24 09:23:43;;;;;;;75.05;70.75;;;;;;;;;;10163692;28;20050;-71
2022/12/24 09:28:39;;;;;;;72.25;67.90;;;;;;;;;;10196337;28;20169;-71
2022/12/24 09:33:37;;;;;;;75.20;70.80;;;;;;;;;;10196131;28;20104;-72
2022/12/24 09:38:34;;;;;;;71.53;67.32;;;;;;;;;;10196931;28;20050;-72
2022/12/24 09:43:31;;;;;;;72.65;68.47;;;;;;;;;;10195784;28;20128;-71
2022/12/24 09:48:28;;;;;;;70.97;66.80;;;;;;;;;;10196776;28;20877;-71
2022/12/24 09:54:00;;;;;;;70.57;66.32;;;;;;;;;;10190476;28;20042;-71
2022/12/24 09:59:00;;;;;;;69.75;65.65;;;;;;;;;;10192037;28;20041;-71
2022/12/24 10:04:04;;;;;;;70.43;66.38;;;;;;;;;;10196496;28;20062;-71
2022/12/24 10:09:06;;;;;;;69.80;65.60;;;;;;;;;;10195028;28;20042;-71
2022/12/24 10:14:06;;;;;;;71.38;67.18;;;;;;;;;;10196032;28;20069;-71
2022/12/24 10:19:17;;;;;;;70.90;66.80;;;;;;;;;;10194300;28;20072;-71
2022/12/24 10:24:23;;;;;;;72.95;68.75;;;;;;;;;;10195486;28;20049;-71
2022/12/24 10:29:21;;;;;;;75.07;70.65;;;;;;;;;;10194037;28;20427;-71
2022/12/24 10:34:21;;;;;;;72.60;68.50;;;;;;;;;;10195286;28;20054;-71
2022/12/24 10:39:18;;;;;;;72.57;68.07;;;;;;;;;;10193398;28;20046;-71
2022/12/24 10:44:17;;;;;;;71.45;67.20;;;;;;;;;;10188774;28;20070;-72
2022/12/24 10:49:32;;;;;;;68.70;64.63;;;;;;;;;;10154644;28;20056;-71
2022/12/24 10:54:33;;;;;;;71.00;66.80;;;;;;;;;;10174465;28;20056;-71
2022/12/24 10:59:32;;;;;;;69.43;65.32;;;;;;;;;;10194023;28;20132;-73
2022/12/24 11:04:30;;;;;;;67.63;63.55;;;;;;;;;;10193000;28;20158;-72
2022/12/24 11:09:29;;;;;;;70.13;65.88;;;;;;;;;;10193493;28;20547;-72
2022/12/24 11:14:29;;;;;;;69.97;65.93;;;;;;;;;;10192903;28;20049;-72
2022/12/24 11:19:31;;;;;;;70.07;66.07;;;;;;;;;;10193181;28;20056;-72
2022/12/24 11:24:30;;;;;;;69.22;65.15;;;;;;;;;;10192668;28;20076;-71
2022/12/24 11:29:27;;;;;;;72.40;68.10;;;;;;;;;;10192941;28;20551;-71
2022/12/24 11:34:25;;;;;;;70.30;66.03;;;;;;;;;;10193175;28;20557;-72
2022/12/24 11:39:23;;;;;;;66.20;62.15;;;;;;;;;;10192046;28;20570;-72
2022/12/24 11:44:23;;;;;;;69.05;64.95;;;;;;;;;;10193148;28;20459;-72
2022/12/24 11:49:24;;;;;;;65.28;61.08;;;;;;;;;;10168197;28;20058;-71
2022/12/24 11:54:27;;;;;;;65.95;61.90;;;;;;;;;;10162302;28;20077;-71
2022/12/24 11:59:32;;;;;;;66.40;62.30;;;;;;;;;;10201131;28;20542;-71
2022/12/24 12:04:34;;;;;;;69.80;65.50;;;;;;;;;;10197661;28;20056;-72
2022/12/24 12:09:32;;;;;;;70.32;65.68;;;;;;;;;;10200545;28;20080;-72
2022/12/24 12:14:31;;;;;;;69.80;65.30;;;;;;;;;;10199639;28;20401;-71
2022/12/24 12:19:34;;;;;;;68.30;63.75;;;;;;;;;;10200022;28;20046;-71
2022/12/24 12:24:34;;;;;;;71.20;66.32;;;;;;;;;;10200138;28;20416;-71
2022/12/24 12:29:32;;;;;;;72.90;68.40;;;;;;;;;;10198408;28;20549;-71
2022/12/24 12:34:35;;;;;;;75.90;70.60;;;;;;;;;;10199723;28;20061;-72
2022/12/24 12:39:33;;;;;;;77.03;71.90;;;;;;;;;;10198127;28;20049;-72
2022/12/24 12:44:48;;;;;;;79.82;74.18;;;;;;;;;;10199763;28;20121;-72
2022/12/24 12:49:53;;;;;;;80.05;74.57;;;;;;;;;;10198233;28;20076;-72
2022/12/24 12:55:08;;;;;;;82.40;76.38;;;;;;;;;;10198853;28;20125;-72
2022/12/24 13:00:06;;;;;;;82.22;76.72;;;;;;;;;;10161631;28;20046;-72
2022/12/24 13:05:14;;;;;;;78.85;73.47;;;;;;;;;;10173814;28;20046;-70
2022/12/24 13:10:33;;;;;;;81.70;76.07;;;;;;;;;;10197200;28;20720;-72
2022/12/24 13:15:40;;;;;;;79.30;73.70;;;;;;;;;;10196811;28;20077;-70
2022/12/24 13:20:40;;;;;;;79.95;74.32;;;;;;;;;;10198576;28;20128;-71
2022/12/24 13:25:40;;;;;;;84.35;78.18;;;;;;;;;;10186955;28;20079;-71
2022/12/24 13:30:38;;;;;;;79.18;72.70;;;;;;;;;;10195885;28;20069;-71
2022/12/24 13:35:34;;;;;;;74.32;69.20;;;;;;;;;;10197534;28;20042;-71
2022/12/24 13:40:34;;;;;;;76.30;71.03;;;;;;;;;;10196289;28;20046;-71
2022/12/24 13:45:37;;;;;;;78.72;72.55;;;;;;;;;;10195630;28;20054;-72
2022/12/24 13:50:43;;;;;;;75.93;70.30;;;;;;;;;;10196026;28;20133;-71
2022/12/24 13:55:47;;;;;;;74.72;68.00;;;;;;;;;;10196236;28;20132;-72
2022/12/24 14:00:51;;;;;;;71.80;66.18;;;;;;;;;;10194944;28;20528;-71
2022/12/24 14:05:52;;;;;;;74.03;68.38;;;;;;;;;;10195645;28;20053;-71
2022/12/24 14:10:57;;;;;;;74.32;68.25;;;;;;;;;;10196067;28;20128;-73
2022/12/24 14:15:53;;;;;;;78.13;71.15;;;;;;;;;;10194499;28;20052;-72
2022/12/24 14:20:51;;;;;;;82.13;74.90;;;;;;;;;;10195760;28;20050;-71
2022/12/24 14:25:50;;;;;;;76.53;70.45;;;;;;;;;;10194591;28;20108;-71
2022/12/24 14:30:58;;;;;;;81.22;74.57;;;;;;;;;;10194258;28;20053;-72
2022/12/24 14:35:54;;;;;;;85.03;77.40;;;;;;;;;;10195463;28;20057;-71
2022/12/24 14:40:56;;;;;;;83.65;76.90;;;;;;;;;;10194443;28;20129;-72
2022/12/24 14:45:58;;;;;;;82.47;76.28;;;;;;;;;;10194843;28;20520;-71
2022/12/24 14:51:20;;;;;;;84.18;77.68;;;;;;;;;;10193960;28;20046;-71
2022/12/24 14:56:18;;;;;;;84.35;77.13;;;;;;;;;;10193620;28;20049;-71
2022/12/24 15:01:17;;;;;;;81.13;75.32;;;;;;;;;;10193137;28;20053;-71
2022/12/24 15:06:13;;;;;;;81.20;75.20;;;;;;;;;;10191980;28;20508;-71
2022/12/24 15:11:13;;;;;;;80.85;74.78;;;;;;;;;;10193890;28;20646;-71
2022/12/24 15:16:11;;;;;;;79.10;73.35;;;;;;;;;;10192368;28;20042;-72
2022/12/24 15:21:14;;;;;;;78.10;72.15;;;;;;;;;;10193531;28;20042;-71
2022/12/24 15:26:14;;;;;;;82.53;76.40;;;;;;;;;;10191775;28;20056;-72
2022/12/24 15:31:12;;;;;;;82.07;75.93;;;;;;;;;;10191946;28;20080;-72
2022/12/24 15:36:08;;;;;;;79.82;74.20;;;;;;;;;;10191041;28;20069;-71
2022/12/24 15:41:24;;;;;;;79.20;72.75;;;;;;;;;;10192243;28;20041;-72
2022/12/24 15:46:22;;;;;;;80.97;74.72;;;;;;;;;;10192553;28;20042;-71
2022/12/24 15:51:31;;;;;;;78.93;72.20;;;;;;;;;;10192278;28;20052;-72
2022/12/24 15:56:29;;;;;;;79.35;72.15;;;;;;;;;;10191927;28;20137;-72
2022/12/24 16:01:27;;;;;;;81.32;73.95;;;;;;;;;;10193123;28;20512;-72
2022/12/24 16:06:23;;;;;;;79.43;72.57;;;;;;;;;;10191679;28;20041;-72
2022/12/24 16:11:22;;;;;;;75.15;68.72;;;;;;;;;;10192877;28;20130;-72
2022/12/24 16:16:20;;;;;;;75.93;69.55;;;;;;;;;;10191077;28;20073;-72
2022/12/24 16:21:25;;;;;;;76.57;69.32;;;;;;;;;;10192558;28;20618;-73
2022/12/24 16:26:21;;;;;;;73.53;67.10;;;;;;;;;;10168381;28;20125;-72
2022/12/24 16:31:26;;;;;;;69.03;62.80;;;;;;;;;;10153084;28;20054;-72
2022/12/24 16:36:22;;;;;;;68.07;61.88;;;;;;;;;;10179536;28;20092;-72
2022/12/24 16:41:19;;;;;;;70.45;64.35;;;;;;;;;;10193273;28;20405;-72
2022/12/24 16:46:15;;;;;;;71.18;63.72;;;;;;;;;;10199516;28;20050;-72
2022/12/24 16:51:12;;;;;;;66.63;60.83;;;;;;;;;;10198245;28;20507;-72
2022/12/24 16:56:08;;;;;;;66.43;60.58;;;;;;;;;;10197840;28;20060;-72
2022/12/24 17:01:05;;;;;;;66.85;60.40;;;;;;;;;;10198538;28;20049;-72
2022/12/24 17:06:05;;;;;;;70.40;63.63;;;;;;;;;;10197539;28;20854;-72
2022/12/24 17:11:01;;;;;;;65.60;59.70;;;;;;;;;;10198164;28;20100;-72
2022/12/24 17:15:59;;;;;;;68.82;62.30;;;;;;;;;;10177851;28;20062;-72
2022/12/24 17:20:59;;;;;;;66.68;60.38;;;;;;;;;;10167935;28;20132;-72
2022/12/24 17:25:56;;;;;;;68.22;62.25;;;;;;;;;;10197887;28;20054;-72
2022/12/24 17:30:53;;;;;;;69.78;63.60;;;;;;;;;;10196992;28;20045;-72
2022/12/24 17:35:51;;;;;;;70.00;63.15;;;;;;;;;;10196991;28;20054;-72
2022/12/24 17:40:47;;;;;;;70.50;63.50;;;;;;;;;;10195751;28;20045;-73
2022/12/24 17:45:43;;;;;;;70.43;64.10;;;;;;;;;;10197054;28;20053;-72
2022/12/24 17:50:39;;;;;;;71.18;64.32;;;;;;;;;;10184403;28;20157;-72
2022/12/24 17:55:40;;;;;;;69.00;62.17;;;;;;;;;;10177060;28;20041;-72
2022/12/24 18:00:36;;;;;;;72.45;65.53;;;;;;;;;;10195540;28;20508;-72
2022/12/24 18:05:33;;;;;;;70.60;64.43;;;;;;;;;;10194847;28;20073;-73
2022/12/24 18:10:29;;;;;;;75.25;68.85;;;;;;;;;;10196191;28;20057;-72
2022/12/24 18:15:26;;;;;;;74.28;67.55;;;;;;;;;;10194486;28;20476;-72
2022/12/24 18:20:22;;;;;;;72.35;65.70;;;;;;;;;;10194833;28;20052;-72
2022/12/24 18:25:19;;;;;;;75.15;68.07;;;;;;;;;;10195592;28;20418;-72
2022/12/24 18:30:16;;;;;;;74.15;66.53;;;;;;;;;;10185851;28;20074;-73
2022/12/24 18:35:21;;;;;;;71.53;64.75;;;;;;;;;;10174185;28;20104;-72
2022/12/24 18:40:19;;;;;;;72.85;66.47;;;;;;;;;;10193907;28;20050;-72
2022/12/24 18:45:15;;;;;;;74.38;67.85;;;;;;;;;;10194731;28;20076;-72
2022/12/24 18:50:11;;;;;;;76.82;69.75;;;;;;;;;;10193414;28;20152;-72
2022/12/24 18:55:08;;;;;;;71.97;65.75;;;;;;;;;;10192940;28;20076;-72
2022/12/24 19:00:04;;;;;;;78.70;71.18;;;;;;;;;;10194738;28;20038;-72
2022/12/24 19:05:01;;;;;;;78.43;71.22;;;;;;;;;;10177691;28;20046;-73
2022/12/24 19:09:57;;;;;;;73.95;67.65;;;;;;;;;;10153982;28;20082;-72
2022/12/24 19:14:53;;;;;;;72.82;66.32;;;;;;;;;;10169272;28;20042;-72
2022/12/24 19:19:50;;;;;;;75.05;68.72;;;;;;;;;;10192323;28;20046;-73
2022/12/24 19:24:46;;;;;;;74.72;67.80;;;;;;;;;;10193612;28;20523;-72
2022/12/24 19:29:42;;;;;;;73.97;67.70;;;;;;;;;;10192329;28;20049;-72
2022/12/24 19:34:38;;;;;;;67.95;62.20;;;;;;;;;;10193014;28;20129;-72
2022/12/24 19:39:35;;;;;;;71.13;65.45;;;;;;;;;;10173286;28;20053;-72
2022/12/24 19:44:31;;;;;;;73.82;67.00;;;;;;;;;;10165131;28;20044;-72
2022/12/24 19:49:27;;;;;;;75.05;68.93;;;;;;;;;;10191650;28;20133;-72
2022/12/24 19:54:24;;;;;;;77.70;70.40;;;;;;;;;;10192320;28;20121;-72
2022/12/24 19:59:20;;;;;;;73.53;67.72;;;;;;;;;;10192650;28;20050;-72
2022/12/24 20:04:17;;;;;;;74.25;67.45;;;;;;;;;;10191623;28;20054;-72
2022/12/24 20:09:14;;;;;;;75.30;68.47;;;;;;;;;;10192556;28;20056;-72
2022/12/24 20:14:10;;;;;;;78.65;71.53;;;;;;;;;;10191486;28;20054;-72
2022/12/24 20:19:06;;;;;;;79.55;72.40;;;;;;;;;;10198775;28;20041;-73
2022/12/24 20:24:03;;;;;;;81.43;73.55;;;;;;;;;;10198920;28;20073;-72
2022/12/24 20:29:06;;;;;;;82.93;75.80;;;;;;;;;;10198468;28;20534;-72
2022/12/24 20:34:04;;;;;;;78.47;72.32;;;;;;;;;;10200057;28;20136;-72
2022/12/24 20:39:00;;;;;;;83.65;75.78;;;;;;;;;;10198395;28;20112;-72
2022/12/24 20:43:57;;;;;;;80.55;73.15;;;;;;;;;;10199208;28;20072;-72
2022/12/24 20:48:54;;;;;;;77.32;69.65;;;;;;;;;;10189179;28;20124;-72
2022/12/24 20:53:51;;;;;;;75.60;68.75;;;;;;;;;;10167800;28;20129;-72
2022/12/24 20:58:48;;;;;;;76.25;69.30;;;;;;;;;;10198470;28;20133;-72
2022/12/24 21:03:44;;;;;;;74.47;67.70;;;;;;;;;;10197684;28;20496;-72
2022/12/24 21:08:41;;;;;;;72.30;66.32;;;;;;;;;;10198091;28;20475;-72
2022/12/24 21:13:37;;;;;;;75.00;68.28;;;;;;;;;;10196646;28;20057;-72
2022/12/24 21:18:34;;;;;;;75.82;69.40;;;;;;;;;;10198154;28;20042;-72
2022/12/24 21:23:30;;;;;;;74.78;68.25;;;;;;;;;;10196623;28;20141;-72
2022/12/24 21:28:27;;;;;;;75.82;69.55;;;;;;;;;;10196689;28;20046;-72
2022/12/24 21:33:23;;;;;;;81.22;74.32;;;;;;;;;;10196520;28;20137;-72
2022/12/24 21:38:19;;;;;;;80.70;73.00;;;;;;;;;;10196042;28;20129;-72
2022/12/24 21:43:15;;;;;;;82.28;75.20;;;;;;;;;;10194635;28;20065;-71
2022/12/24 21:58:41;;;;;;;86.97;80.65;;;;;;;;;;10195504;28;20503;-72
2022/12/24 22:03:38;;;;;;;88.40;81.75;;;;;;;;;;10196583;28;20554;-72
2022/12/24 22:13:49;;;;;;;84.97;77.43;;;;;;;;;;10196117;28;20507;-72
2022/12/24 22:18:45;;;;;;;78.55;72.28;;;;;;;;;;10194849;28;20527;-72
2022/12/24 22:23:41;;;;;;;81.68;75.18;;;;;;;;;;10195835;28;20056;-72
2022/12/24 22:28:38;;;;;;;83.13;76.05;;;;;;;;;;10194228;28;20157;-72
2022/12/24 22:33:35;;;;;;;81.82;75.40;;;;;;;;;;10194519;28;20058;-72
2022/12/24 22:38:31;;;;;;;81.93;75.53;;;;;;;;;;10194959;28;20112;-72
2022/12/24 22:43:27;;;;;;;86.18;78.80;;;;;;;;;;10194079;28;20543;-72
2022/12/24 22:48:23;;;;;;;88.22;80.03;;;;;;;;;;10194090;28;20055;-72
2022/12/24 22:53:20;;;;;;;86.97;79.78;;;;;;;;;;10194470;28;20076;-72
2022/12/24 22:58:16;;;;;;;90.97;83.05;;;;;;;;;;10193231;28;20045;-72
2022/12/24 23:03:12;;;;;;;91.38;83.55;;;;;;;;;;10194556;28;20556;-72
2022/12/24 23:08:10;;;;;;;95.70;88.32;;;;;;;;;;10193360;28;20125;-72
2022/12/24 23:18:21;;;;;;;94.45;87.50;;;;;;;;;;10194115;28;20400;-72
2022/12/24 23:23:17;;;;;;;93.55;86.10;;;;;;;;;;10192725;28;20087;-72
2022/12/24 23:28:13;;;;;;;89.20;82.88;;;;;;;;;;10193704;28;20142;-74
2022/12/24 23:33:10;;;;;;;88.80;82.30;;;;;;;;;;10192635;28;20431;-72
2022/12/24 23:38:06;;;;;;;90.65;83.13;;;;;;;;;;10193307;28;20046;-72
2022/12/24 23:43:02;;;;;;;88.57;82.10;;;;;;;;;;10192425;28;20574;-73
2022/12/24 23:47:58;;;;;;;82.43;75.95;;;;;;;;;;10153765;28;20046;-72
2022/12/24 23:52:55;;;;;;;83.25;77.15;;;;;;;;;;10158243;28;20065;-72
2022/12/24 23:57:51;;;;;;;81.68;75.93;;;;;;;;;;10199166;28;20045;-72
